Terminal Aerodrome Forecast
Issued by NWS Detroit/Pontiac, MI

Home | Current Version | Previous Version | Text Only | Print | Product List | Glossary On
Versions: 1 2 3 4 5 6 7 8 9 10 11 12 13 14 15 16 17 18 19 20 21 22 23 24 25 26 27
000
FTUS43 KDTX 041127
TAFDTW
TAF
KDTW 041127Z 0412/0518 20007KT 6SM -SHRA OVC080
     FM041700 24013KT P6SM BKN060 OVC120
      TEMPO 0417/0421 3SM -RA SCT025 OVC040
     FM042100 30013KT P6SM BKN040
     FM050200 04008KT P6SM BKN080 OVC200
     FM050800 09005KT 6SM -SHRA OVC040=

USA.gov is the U.S. government's official web portal to all federal, state and local government web resources and services.